Time;durP1;ratioP1;P1;durP2;ratioP2;P2;SDS_P1;SDS_P2;PMS_P1;PMS_P2;Temp;Humidity;BMP_temperature;BMP_pressure;BME280_temperature;BME280_humidity;BME280_pressure;Samples;Min_cycle;Max_cycle;Signal;HPM_P1;HPM_P2
2023/06/08 00:01:15;;;;;;;14.75;11.73;;;;;;;17.33;92.36;97700.28;10287793;28;20046;-51
2023/06/08 00:06:15;;;;;;;13.73;11.43;;;;;;;17.24;92.42;97697.94;10288440;28;20069;-52
2023/06/08 00:11:14;;;;;;;17.77;12.18;;;;;;;17.17;92.61;97706.88;10286678;28;20076;-51
2023/06/08 00:16:13;;;;;;;13.68;12.23;;;;;;;17.04;92.80;97708.13;10287852;28;20036;-51
2023/06/08 00:21:12;;;;;;;15.73;12.82;;;;;;;16.97;93.36;97704.81;10284835;28;20541;-51
2023/06/08 00:26:12;;;;;;;15.65;12.20;;;;;;;16.91;93.35;97700.59;10284781;28;20121;-48
2023/06/08 00:31:11;;;;;;;20.85;13.05;;;;;;;16.76;94.88;97711.44;10284019;28;20057;-50
2023/06/08 00:36:12;;;;;;;16.33;12.00;;;;;;;16.76;94.69;97705.34;10282576;28;20044;-51
2023/06/08 00:41:11;;;;;;;17.83;12.80;;;;;;;16.76;94.74;97705.34;10281036;28;20121;-48
2023/06/08 00:46:10;;;;;;;17.00;11.85;;;;;;;16.68;94.79;97701.19;10280739;28;20041;-48
2023/06/08 00:51:11;;;;;;;15.40;12.02;;;;;;;16.72;94.54;97699.31;10281752;28;20136;-52
2023/06/08 00:56:11;;;;;;;18.15;12.82;;;;;;;16.63;94.87;97700.44;10283334;28;20471;-50
2023/06/08 01:01:12;;;;;;;17.67;13.10;;;;;;;16.53;94.65;97688.47;10283304;28;20128;-49
2023/06/08 01:06:13;;;;;;;17.95;12.93;;;;;;;16.56;94.64;97692.75;10283256;28;20129;-49
2023/06/08 01:11:22;;;;;;;14.73;11.68;;;;;;;16.47;94.79;97691.25;10283791;28;20058;-51
2023/06/08 01:16:24;;;;;;;14.88;12.13;;;;;;;16.43;94.37;97687.00;10283294;28;20137;-50
2023/06/08 01:22:00;;;;;;;19.55;12.02;;;;;;;16.39;94.42;97690.59;10288511;28;20117;-52
2023/06/08 01:26:59;;;;;;;16.27;13.13;;;;;;;16.35;94.27;97694.16;10290819;28;20160;-50
2023/06/08 01:31:58;;;;;;;15.57;11.25;;;;;;;16.30;93.96;97692.56;10291140;28;20100;-50
2023/06/08 01:37:06;;;;;;;17.80;11.73;;;;;;;16.02;93.71;97652.22;10290398;28;20587;-50
2023/06/08 01:42:07;;;;;;;12.55;9.95;;;;;;;16.15;93.38;97682.44;10291633;28;20069;-49
2023/06/08 01:47:07;;;;;;;15.98;9.85;;;;;;;16.11;92.82;97682.56;10292872;28;20547;-50
2023/06/08 01:52:07;;;;;;;14.68;10.27;;;;;;;16.02;93.08;97686.25;10293473;28;20520;-49
2023/06/08 01:57:06;;;;;;;13.82;11.30;;;;;;;15.93;92.94;97682.13;10293387;28;20066;-50
2023/06/08 02:02:05;;;;;;;15.68;11.88;;;;;;;15.80;93.33;97678.06;10293434;28;20061;-49
2023/06/08 02:07:05;;;;;;;15.77;13.80;;;;;;;15.74;93.87;97678.16;10292432;28;20064;-48
2023/06/08 02:12:07;;;;;;;18.95;13.38;;;;;;;15.52;94.07;97644.63;10292833;28;20061;-50
2023/06/08 02:17:06;;;;;;;18.75;13.32;;;;;;;15.66;94.27;97676.56;10292432;28;20573;-50
2023/06/08 02:22:05;;;;;;;22.52;15.32;;;;;;;15.62;94.67;97667.09;10292020;28;20423;-50
2023/06/08 02:27:05;;;;;;;25.77;15.82;;;;;;;15.60;94.94;97668.88;10292434;28;20077;-51
2023/06/08 02:32:04;;;;;;;22.85;16.52;;;;;;;15.54;95.22;97663.78;10291578;28;20508;-49
2023/06/08 02:37:04;;;;;;;26.67;18.45;;;;;;;15.54;96.42;97671.63;10292189;28;20072;-51
2023/06/08 02:42:04;;;;;;;27.13;20.48;;;;;;;15.44;98.49;97667.50;10290342;28;20120;-49
2023/06/08 02:47:04;;;;;;;27.13;19.40;;;;;;;15.44;98.43;97670.13;10288105;28;20130;-50
2023/06/08 02:52:03;;;;;;;26.60;19.20;;;;;;;15.42;98.39;97664.91;10287706;28;20068;-50
2023/06/08 02:57:03;;;;;;;25.95;18.95;;;;;;;15.37;98.05;97660.69;10287348;28;20501;-53
2023/06/08 03:02:02;;;;;;;28.92;18.98;;;;;;;15.46;97.91;97681.41;10287127;28;20069;-50
2023/06/08 03:07:01;;;;;;;28.08;19.73;;;;;;;15.45;97.74;97675.28;10288026;28;20122;-49
2023/06/08 03:12:02;;;;;;;27.40;19.33;;;;;;;15.46;98.07;97686.63;10286449;28;20038;-51
2023/06/08 03:17:03;;;;;;;25.33;18.50;;;;;;;15.46;97.83;97692.72;10286332;28;20517;-51
2023/06/08 03:22:04;;;;;;;23.80;17.55;;;;;;;15.51;97.28;97682.16;10287535;28;20073;-48
2023/06/08 03:27:05;;;;;;;25.58;17.33;;;;;;;15.63;97.20;97694.09;10287269;28;20108;-48
2023/06/08 03:32:05;;;;;;;25.65;16.38;;;;;;;15.72;96.37;97693.91;10286916;28;20077;-49
2023/06/08 03:37:04;;;;;;;21.05;13.85;;;;;;;15.77;96.03;97699.03;10286066;28;20120;-51
2023/06/08 03:42:03;;;;;;;17.80;13.15;;;;;;;15.80;95.30;97699.84;10286113;28;20081;-51
2023/06/08 03:47:03;;;;;;;19.20;12.55;;;;;;;15.94;94.98;97693.44;10283454;28;20512;-50
2023/06/08 03:52:04;;;;;;;41.03;13.40;;;;;;;16.02;94.49;97697.59;10286128;28;20076;-53
2023/06/08 03:57:03;;;;;;;18.42;11.93;;;;;;;16.19;94.42;97696.34;10285328;28;20076;-53
2023/06/08 04:02:02;;;;;;;18.35;11.63;;;;;;;16.33;93.27;97689.00;10285237;28;20065;-50
2023/06/08 04:07:02;;;;;;;14.88;10.52;;;;;;;16.46;92.42;97693.00;10285669;28;20577;-51
2023/06/08 04:12:01;;;;;;;15.65;11.35;;;;;;;16.33;91.05;97654.94;10284750;28;20113;-51
2023/06/08 04:17:01;;;;;;;16.23;9.90;;;;;;;16.65;91.24;97690.78;10284607;28;20054;-49
2023/06/08 04:22:00;;;;;;;16.80;10.45;;;;;;;16.75;89.91;97682.66;10284373;28;20033;-51
2023/06/08 04:27:00;;;;;;;13.82;10.27;;;;;;;16.78;89.46;97699.16;10284637;28;20129;-52
2023/06/08 04:31:58;;;;;;;18.10;10.32;;;;;;;16.71;89.69;97695.84;10284710;28;20110;-52
2023/06/08 04:36:58;;;;;;;14.55;9.32;;;;;;;16.60;90.00;97695.25;10284018;28;20033;-51
2023/06/08 04:41:57;;;;;;;14.40;9.77;;;;;;;16.65;90.24;97689.91;10283479;28;20084;-52
2023/06/08 04:46:56;;;;;;;13.85;9.30;;;;;;;16.72;90.47;97694.06;10282009;28;20584;-51
2023/06/08 04:51:56;;;;;;;15.70;10.10;;;;;;;16.78;90.04;97686.06;10285837;28;20516;-52
2023/06/08 04:57:03;;;;;;;13.35;9.32;;;;;;;16.85;89.36;97699.91;10283089;28;20077;-50
2023/06/08 05:02:02;;;;;;;15.50;10.30;;;;;;;16.69;90.31;97699.41;10283574;28;20066;-52
2023/06/08 05:07:01;;;;;;;12.52;9.23;;;;;;;16.71;90.43;97703.72;10286208;28;20568;-51
2023/06/08 05:12:00;;;;;;;11.98;8.95;;;;;;;16.94;90.41;97699.66;10282709;28;20893;-52
2023/06/08 05:16:59;;;;;;;15.40;9.55;;;;;;;17.16;89.29;97704.28;10282826;28;20405;-51
2023/06/08 05:21:58;;;;;;;17.60;9.40;;;;;;;17.07;89.61;97692.28;10284074;28;20046;-52
2023/06/08 05:26:57;;;;;;;14.57;9.85;;;;;;;17.28;89.50;97691.69;10283489;28;20052;-50
2023/06/08 05:31:56;;;;;;;18.08;10.75;;;;;;;17.41;90.11;97694.81;10282349;28;20033;-49
2023/06/08 05:36:55;;;;;;;17.30;10.73;;;;;;;17.51;90.10;97704.13;10282891;28;20049;-53
2023/06/08 05:41:54;;;;;;;15.73;11.88;;;;;;;17.59;90.35;97706.53;10282551;28;20022;-51
2023/06/08 05:46:53;;;;;;;15.45;12.45;;;;;;;17.66;90.46;97702.81;10280578;28;20033;-51
2023/06/08 05:51:51;;;;;;;15.82;12.07;;;;;;;17.63;90.54;97696.78;10283133;28;20026;-52
2023/06/08 05:56:50;;;;;;;18.35;12.32;;;;;;;17.68;90.45;97690.53;10282495;28;20528;-49
2023/06/08 06:01:50;;;;;;;16.90;12.40;;;;;;;17.93;89.75;97708.16;10280660;28;20092;-51
2023/06/08 06:06:49;;;;;;;20.67;13.18;;;;;;;17.92;89.40;97694.16;10286606;28;20073;-50
2023/06/08 06:11:48;;;;;;;15.95;12.18;;;;;;;18.23;89.92;97679.19;10289080;28;20044;-50
2023/06/08 06:16:47;;;;;;;12.50;10.68;;;;;;;18.48;86.13;97685.34;10289990;28;20072;-50
2023/06/08 06:21:46;;;;;;;12.27;9.05;;;;;;;18.74;84.56;97691.53;10288936;28;20030;-48
2023/06/08 06:26:45;;;;;;;10.55;8.82;;;;;;;18.90;82.40;97690.06;10289115;28;20153;-52
2023/06/08 06:31:44;;;;;;;13.80;8.48;;;;;;;19.11;81.10;97684.91;10288188;28;20321;-48
2023/06/08 06:36:42;;;;;;;11.98;8.05;;;;;;;19.17;81.24;97680.31;10288226;28;20552;-52
2023/06/08 06:41:41;;;;;;;12.93;7.78;;;;;;;19.57;79.80;97681.47;10289529;28;20116;-52
2023/06/08 06:46:41;;;;;;;10.98;8.50;;;;;;;19.74;79.00;97675.53;10287016;28;20117;-52
2023/06/08 06:51:41;;;;;;;13.80;8.55;;;;;;;20.09;79.00;97683.81;10285138;28;20269;-50
2023/06/08 06:56:39;;;;;;;20.00;8.80;;;;;;;20.35;77.33;97677.47;10288045;28;20121;-51
2023/06/08 07:01:39;;;;;;;10.13;7.88;;;;;;;20.58;74.24;97683.59;10288501;28;20103;-51
2023/06/08 07:06:37;;;;;;;9.23;7.10;;;;;;;20.66;75.10;97666.53;10283749;28;20497;-50
2023/06/08 07:11:36;;;;;;;11.70;7.40;;;;;;;20.83;76.10;97670.22;10288184;28;20502;-50
2023/06/08 07:16:35;;;;;;;10.30;6.63;;;;;;;21.03;71.17;97669.31;10282896;28;20041;-52
2023/06/08 07:21:39;;;;;;;11.23;6.65;;;;;;;21.01;70.18;97660.63;10285648;28;20100;-51
2023/06/08 07:26:38;;;;;;;9.63;6.00;;;;;;;21.12;71.26;97659.25;10287709;28;20085;-50
2023/06/08 07:31:39;;;;;;;10.95;7.35;;;;;;;21.03;70.03;97638.53;10287344;28;20057;-52
2023/06/08 07:36:37;;;;;;;15.95;7.35;;;;;;;21.39;70.93;97656.28;10287587;28;20117;-50
2023/06/08 07:41:36;;;;;;;7.20;5.28;;;;;;;21.52;67.68;97654.81;10287881;28;20112;-52
2023/06/08 07:46:35;;;;;;;12.80;6.35;;;;;;;21.75;67.56;97647.56;10283467;28;20022;-52
2023/06/08 07:51:34;;;;;;;10.90;6.50;;;;;;;21.76;66.06;97649.28;10282869;28;20121;-51
2023/06/08 07:56:34;;;;;;;11.43;6.13;;;;;;;21.82;66.54;97648.13;10284499;28;20500;-52
2023/06/08 08:01:33;;;;;;;7.72;6.10;;;;;;;21.96;65.44;97643.03;10284420;28;20084;-50
2023/06/08 08:06:32;;;;;;;7.25;5.78;;;;;;;22.33;63.70;97654.44;10288219;28;20120;-53
2023/06/08 08:11:31;;;;;;;9.05;5.88;;;;;;;22.48;62.38;97647.53;10289026;28;20045;-49
2023/06/08 08:16:30;;;;;;;10.95;6.45;;;;;;;22.92;64.26;97647.06;10284959;28;20026;-49
2023/06/08 08:21:29;;;;;;;8.52;5.55;;;;;;;23.69;61.41;97653.53;10286858;28;20021;-50
2023/06/08 08:26:31;;;;;;;16.10;5.70;;;;;;;24.05;60.29;97643.50;10288165;28;20536;-52
2023/06/08 08:31:30;;;;;;;12.98;5.60;;;;;;;24.09;57.98;97638.84;10285665;28;20092;-51
2023/06/08 08:36:29;;;;;;;7.60;5.10;;;;;;;24.18;57.66;97632.22;10280749;28;20109;-52
2023/06/08 08:41:28;;;;;;;9.13;4.85;;;;;;;24.20;55.76;97633.81;10287217;28;20030;-51
2023/06/08 08:46:34;;;;;;;7.45;4.80;;;;;;;24.25;55.55;97633.56;10283565;28;20117;-53
2023/06/08 08:51:38;;;;;;;10.02;5.00;;;;;;;24.16;53.65;97642.00;10281093;28;20124;-50
2023/06/08 08:56:38;;;;;;;7.65;4.75;;;;;;;23.91;52.43;97638.13;10285280;28;20138;-50
2023/06/08 09:01:39;;;;;;;10.27;4.72;;;;;;;24.08;54.77;97636.31;10284255;28;20603;-51
2023/06/08 09:06:38;;;;;;;11.30;5.43;;;;;;;23.58;55.38;97641.75;10284247;28;20154;-51
2023/06/08 09:11:58;;;;;;;8.57;4.78;;;;;;;23.56;57.18;97633.03;10284780;28;20117;-52
2023/06/08 09:17:01;;;;;;;7.75;4.88;;;;;;;23.76;55.80;97631.03;10284246;28;20072;-53
2023/06/08 09:22:01;;;;;;;9.50;5.22;;;;;;;23.82;56.06;97631.56;10282829;28;20065;-50
2023/06/08 09:27:03;;;;;;;7.82;4.95;;;;;;;24.08;55.65;97621.25;10283555;28;20134;-53
2023/06/08 09:32:09;;;;;;;6.75;4.53;;;;;;;24.21;55.31;97630.22;10284983;28;20129;-52
2023/06/08 09:37:10;;;;;;;7.82;4.78;;;;;;;23.95;54.58;97607.84;10282593;28;20100;-52
2023/06/08 09:42:09;;;;;;;7.97;4.40;;;;;;;23.85;54.79;97630.53;10291746;28;20141;-50
2023/06/08 09:47:29;;;;;;;7.70;5.03;;;;;;;24.20;54.19;97627.69;10292721;28;20121;-49
2023/06/08 09:52:33;;;;;;;7.75;4.53;;;;;;;24.36;52.99;97622.34;10289082;28;20069;-52
2023/06/08 09:57:35;;;;;;;5.72;4.30;;;;;;;24.30;52.06;97604.97;10291289;28;20105;-52
2023/06/08 10:02:41;;;;;;;7.63;4.32;;;;;;;24.20;52.22;97606.47;10291879;28;20121;-51
2023/06/08 10:07:43;;;;;;;7.22;4.53;;;;;;;24.02;52.87;97581.84;10289617;28;20124;-52
2023/06/08 10:12:43;;;;;;;8.18;4.68;;;;;;;24.19;52.33;97594.13;10291433;28;20061;-51
2023/06/08 10:17:42;;;;;;;5.97;4.15;;;;;;;24.44;52.19;97605.00;10292025;28;20104;-51
2023/06/08 10:22:43;;;;;;;8.05;5.03;;;;;;;24.11;51.38;97508.88;10285881;28;20075;-52
2023/06/08 10:27:52;;;;;;;6.93;4.07;;;;;;;24.62;52.15;97587.13;10289638;28;20121;-52
2023/06/08 10:32:51;;;;;;;5.70;4.72;;;;;;;24.47;53.20;97573.00;10291516;28;20057;-52
2023/06/08 10:37:50;;;;;;;5.70;4.55;;;;;;;24.64;51.01;97585.25;10289877;28;20049;-52
2023/06/08 10:42:59;;;;;;;7.35;4.20;;;;;;;24.53;50.06;97566.47;10289456;28;20042;-52
2023/06/08 10:48:13;;;;;;;5.70;4.82;;;;;;;24.48;50.11;97569.41;10287459;28;20148;-50
2023/06/08 10:53:16;;;;;;;6.95;4.82;;;;;;;25.03;50.69;97548.38;10287385;28;20116;-53
2023/06/08 10:58:20;;;;;;;8.40;4.97;;;;;;;25.29;50.38;97552.91;10287934;28;20524;-53
2023/06/08 11:03:20;;;;;;;6.82;4.82;;;;;;;25.31;49.56;97544.81;10288016;28;21010;-52
2023/06/08 11:08:20;;;;;;;8.13;4.10;;;;;;;25.50;48.58;97542.72;10288342;28;20108;-50
2023/06/08 11:13:19;;;;;;;6.80;4.38;;;;;;;25.29;47.03;97518.38;10286302;28;20121;-53
2023/06/08 11:18:21;;;;;;;9.68;4.55;;;;;;;25.19;48.38;97543.81;10283346;28;20576;-53
2023/06/08 11:23:20;;;;;;;5.70;4.15;;;;;;;25.01;49.34;97531.69;10283617;28;20137;-51
2023/06/08 11:28:21;;;;;;;6.40;4.18;;;;;;;24.80;48.05;97513.50;10283817;28;20037;-52
2023/06/08 11:33:20;;;;;;;6.47;3.70;;;;;;;25.07;47.49;97524.19;10285005;28;20124;-51
2023/06/08 11:38:23;;;;;;;7.60;4.15;;;;;;;25.00;47.01;97524.69;10285806;28;20149;-51
2023/06/08 11:43:22;;;;;;;6.60;4.03;;;;;;;24.78;47.88;97518.06;10286405;28;20108;-53
2023/06/08 11:48:24;;;;;;;8.13;4.25;;;;;;;24.94;47.92;97509.16;10285449;28;20085;-50
2023/06/08 11:53:23;;;;;;;7.72;4.18;;;;;;;24.89;47.23;97504.13;10283795;28;20088;-52
2023/06/08 11:58:27;;;;;;;9.07;4.72;;;;;;;24.83;47.77;97500.03;10282329;28;20109;-50
2023/06/08 12:03:31;;;;;;;5.63;3.80;;;;;;;24.73;47.21;97504.22;10276685;28;20112;-49
2023/06/08 12:08:33;;;;;;;8.90;4.38;;;;;;;24.84;47.67;97495.56;10284165;28;20137;-49
2023/06/08 12:13:32;;;;;;;4.97;3.78;;;;;;;25.09;47.52;97501.06;10283999;28;20057;-50
2023/06/08 12:18:37;;;;;;;6.72;4.00;;;;;;;25.04;46.92;97502.31;10283521;28;20120;-50
2023/06/08 12:23:36;;;;;;;7.28;4.60;;;;;;;24.85;46.27;97494.66;10284902;28;20077;-51
2023/06/08 12:28:36;;;;;;;7.05;4.60;;;;;;;24.71;46.50;97490.19;10283762;28;20050;-53
2023/06/08 12:33:36;;;;;;;9.48;4.40;;;;;;;24.81;46.44;97479.84;10283812;28;20117;-49
2023/06/08 12:38:35;;;;;;;8.15;4.40;;;;;;;24.77;46.50;97489.78;10282794;28;20084;-51
2023/06/08 12:43:34;;;;;;;7.38;4.28;;;;;;;24.96;47.01;97478.06;10284092;28;20055;-50
2023/06/08 12:48:33;;;;;;;9.75;4.38;;;;;;;25.14;47.89;97476.88;10283142;28;20470;-50
2023/06/08 12:53:32;;;;;;;7.00;4.53;;;;;;;25.37;47.34;97477.19;10282856;28;20505;-51
2023/06/08 12:58:31;;;;;;;7.60;4.55;;;;;;;25.66;46.18;97460.19;10281357;28;20176;-53
2023/06/08 13:03:30;;;;;;;10.02;4.32;;;;;;;25.50;45.33;97377.13;10283677;28;20081;-51
2023/06/08 13:08:29;;;;;;;9.48;4.68;;;;;;;26.26;44.77;97450.84;10284891;28;20037;-52
2023/06/08 13:13:28;;;;;;;7.65;4.35;;;;;;;26.66;43.74;97473.78;10286344;28;20033;-53
2023/06/08 13:18:27;;;;;;;8.50;4.35;;;;;;;26.96;43.15;97460.13;10290041;28;20037;-52
2023/06/08 13:23:27;;;;;;;5.80;4.38;;;;;;;27.12;42.62;97459.84;10291346;28;20128;-52
2023/06/08 13:28:26;;;;;;;5.38;3.80;;;;;;;26.94;42.07;97452.25;10292105;28;20125;-53
2023/06/08 13:33:25;;;;;;;8.70;4.28;;;;;;;26.86;41.93;97457.28;10292086;28;20050;-52
2023/06/08 13:38:25;;;;;;;7.70;4.32;;;;;;;26.64;43.48;97444.59;10290956;28;20030;-51
2023/06/08 13:43:24;;;;;;;6.85;4.30;;;;;;;26.47;43.25;97447.63;10293606;28;20509;-52
2023/06/08 13:48:26;;;;;;;6.05;4.15;;;;;;;26.40;43.60;97446.38;10293162;28;20519;-53
2023/06/08 13:53:25;;;;;;;5.93;4.38;;;;;;;26.33;42.74;97440.63;10291165;28;20069;-52
2023/06/08 13:58:23;;;;;;;10.10;4.97;;;;;;;26.16;42.83;97437.28;10292962;28;20045;-53
2023/06/08 14:03:22;;;;;;;7.15;4.95;;;;;;;25.76;44.36;97417.88;10293208;28;20036;-52
2023/06/08 14:08:22;;;;;;;7.80;4.18;;;;;;;25.88;44.55;97419.72;10292609;28;20042;-52
2023/06/08 14:13:21;;;;;;;5.68;3.88;;;;;;;25.66;43.80;97409.69;10292758;28;20128;-52
2023/06/08 14:18:20;;;;;;;8.45;4.75;;;;;;;25.70;43.36;97410.34;10291898;28;20103;-51
2023/06/08 14:23:19;;;;;;;5.32;4.20;;;;;;;25.64;43.92;97408.94;10292086;28;20117;-52
2023/06/08 14:28:18;;;;;;;10.10;4.30;;;;;;;25.06;44.74;97327.84;10291860;28;20153;-52
2023/06/08 14:33:17;;;;;;;8.23;4.32;;;;;;;25.65;44.15;97401.84;10291098;28;20121;-51
2023/06/08 14:38:16;;;;;;;8.95;4.70;;;;;;;25.50;43.99;97393.06;10287312;28;20036;-52
2023/06/08 14:43:15;;;;;;;8.60;4.63;;;;;;;25.74;44.91;97398.56;10288155;28;20117;-52
2023/06/08 14:48:15;;;;;;;5.60;3.80;;;;;;;25.30;44.00;97389.09;10288080;28;20599;-52
2023/06/08 14:53:13;;;;;;;5.68;3.60;;;;;;;25.32;43.74;97385.38;10286340;28;20057;-50
2023/06/08 14:58:12;;;;;;;4.57;3.60;;;;;;;25.00;43.93;97390.16;10284583;28;20042;-52
2023/06/08 15:03:11;;;;;;;6.63;4.15;;;;;;;24.78;44.25;97395.97;10285786;28;20037;-51
2023/06/08 15:08:10;;;;;;;5.75;3.65;;;;;;;24.72;44.26;97403.47;10280202;28;20042;-52
2023/06/08 15:13:10;;;;;;;5.82;3.42;;;;;;;24.42;44.62;97391.19;10278398;28;20125;-51
2023/06/08 15:18:09;;;;;;;5.13;3.53;;;;;;;24.48;44.47;97378.41;10284800;28;20081;-51
2023/06/08 15:23:09;;;;;;;6.80;3.65;;;;;;;24.35;44.67;97393.38;10286609;28;20069;-52
2023/06/08 15:28:08;;;;;;;6.70;3.58;;;;;;;24.53;44.24;97395.84;10285413;28;20133;-49
2023/06/08 15:33:07;;;;;;;6.65;3.95;;;;;;;24.64;43.18;97391.56;10282959;28;20119;-51
2023/06/08 15:38:06;;;;;;;5.20;3.53;;;;;;;24.24;44.07;97401.19;10283516;28;20025;-48
2023/06/08 15:43:05;;;;;;;5.50;3.83;;;;;;;24.14;44.58;97410.59;10283101;28;20128;-51
2023/06/08 15:48:04;;;;;;;7.50;3.80;;;;;;;24.03;44.88;97406.81;10280529;28;20044;-49
2023/06/08 15:53:03;;;;;;;7.95;3.70;;;;;;;24.15;45.29;97410.50;10284072;28;20128;-50
2023/06/08 15:58:03;;;;;;;8.57;3.88;;;;;;;24.20;45.60;97408.44;10283491;28;20125;-49
2023/06/08 16:03:03;;;;;;;8.48;3.95;;;;;;;24.11;45.48;97413.44;10281926;28;20489;-52
2023/06/08 16:08:02;;;;;;;6.25;3.63;;;;;;;23.84;46.15;97414.16;10283794;28;20084;-50
2023/06/08 16:13:01;;;;;;;7.50;4.00;;;;;;;23.76;46.60;97411.97;10285485;28;20128;-49
2023/06/08 16:18:00;;;;;;;7.10;4.28;;;;;;;23.68;47.14;97411.59;10284761;28;20073;-51
2023/06/08 16:22:59;;;;;;;7.53;4.20;;;;;;;23.33;47.11;97387.16;10279460;28;20372;-52
2023/06/08 16:27:58;;;;;;;5.43;3.55;;;;;;;23.31;47.89;97415.53;10284142;28;20049;-52
2023/06/08 16:32:57;;;;;;;11.77;6.28;;;;;;;23.19;47.61;97412.63;10283571;28;20030;-50
2023/06/08 16:37:56;;;;;;;5.65;3.47;;;;;;;23.19;46.63;97407.34;10283531;28;20080;-50
2023/06/08 16:42:55;;;;;;;8.18;4.72;;;;;;;23.16;46.76;97412.81;10283569;28;20044;-52
2023/06/08 16:47:54;;;;;;;8.90;5.50;;;;;;;23.23;46.81;97427.41;10281290;28;20120;-51
2023/06/08 16:52:53;;;;;;;8.32;4.50;;;;;;;23.35;46.40;97420.56;10281334;28;20044;-50
2023/06/08 16:57:52;;;;;;;6.75;4.38;;;;;;;23.32;45.31;97411.91;10282521;28;20457;-52
2023/06/08 17:02:51;;;;;;;6.70;3.83;;;;;;;23.40;46.78;97429.06;10281329;28;20022;-51
2023/06/08 17:07:50;;;;;;;5.85;3.67;;;;;;;23.33;47.12;97413.63;10279475;28;20112;-51
2023/06/08 17:12:49;;;;;;;6.50;3.60;;;;;;;23.42;46.18;97429.00;10282694;28;20112;-52
2023/06/08 17:17:48;;;;;;;10.32;5.43;;;;;;;23.28;45.68;97423.63;10277383;28;20049;-50
2023/06/08 17:22:46;;;;;;;8.05;4.88;;;;;;;23.15;46.00;97421.69;10282061;28;20121;-53
2023/06/08 17:27:46;;;;;;;9.27;4.40;;;;;;;23.11;46.29;97425.44;10282571;28;20038;-51
2023/06/08 17:32:45;;;;;;;8.13;4.35;;;;;;;23.06;46.48;97435.44;10283068;28;20073;-51
2023/06/08 17:37:43;;;;;;;10.20;4.63;;;;;;;22.96;47.97;97437.75;10282116;28;20040;-55
2023/06/08 17:42:43;;;;;;;8.20;4.60;;;;;;;22.95;48.45;97437.81;10280523;28;20038;-50
2023/06/08 17:47:42;;;;;;;13.00;4.65;;;;;;;22.83;48.82;97446.47;10279911;28;20133;-51
2023/06/08 17:52:59;;;;;;;13.50;5.25;;;;;;;22.71;49.76;97447.97;10282139;28;20069;-51
2023/06/08 17:57:58;;;;;;;7.55;4.57;;;;;;;22.60;49.69;97451.22;10278925;28;20105;-52
2023/06/08 18:02:57;;;;;;;11.38;4.80;;;;;;;22.35;50.42;97441.09;10287496;28;20141;-53
2023/06/08 18:07:56;;;;;;;9.18;4.43;;;;;;;22.36;50.94;97456.84;10286096;28;20113;-53
2023/06/08 18:12:55;;;;;;;8.30;5.03;;;;;;;22.19;51.58;97462.19;10289028;28;20033;-53
2023/06/08 18:17:54;;;;;;;8.82;4.10;;;;;;;22.06;52.38;97464.63;10288463;28;20030;-51
2023/06/08 18:22:53;;;;;;;9.43;4.22;;;;;;;21.75;52.41;97433.63;10288306;28;20069;-53
2023/06/08 18:27:52;;;;;;;12.32;4.38;;;;;;;21.70;53.05;97464.69;10288000;28;20553;-53
2023/06/08 18:32:52;;;;;;;14.32;5.55;;;;;;;21.57;52.93;97471.50;10288556;28;20508;-52
2023/06/08 18:37:52;;;;;;;9.70;3.95;;;;;;;21.41;53.55;97480.22;10288514;28;20129;-52
2023/06/08 18:42:51;;;;;;;7.20;3.72;;;;;;;21.27;54.23;97485.31;10290531;28;20085;-52
2023/06/08 18:47:50;;;;;;;7.57;4.32;;;;;;;21.06;54.71;97493.28;10290183;28;20125;-51
2023/06/08 18:52:49;;;;;;;11.98;4.30;;;;;;;20.86;54.95;97496.84;10290246;28;20139;-52
2023/06/08 18:57:48;;;;;;;8.30;4.85;;;;;;;20.79;55.79;97497.22;10287470;28;20054;-52
2023/06/08 19:02:47;;;;;;;10.00;4.15;;;;;;;20.70;56.62;97512.53;10290790;28;20036;-51
2023/06/08 19:07:46;;;;;;;8.23;4.88;;;;;;;20.46;57.53;97492.56;10289968;28;20120;-53
2023/06/08 19:12:45;;;;;;;8.80;4.43;;;;;;;20.52;57.83;97509.88;10289458;28;20049;-51
2023/06/08 19:17:44;;;;;;;10.02;4.90;;;;;;;20.44;57.76;97503.16;10288224;28;20056;-52
2023/06/08 19:22:43;;;;;;;6.63;4.35;;;;;;;20.28;57.69;97473.09;10289458;28;20088;-50
2023/06/08 19:27:42;;;;;;;8.05;4.57;;;;;;;20.33;58.96;97500.13;10288990;28;20135;-50
2023/06/08 19:32:42;;;;;;;9.82;4.30;;;;;;;20.21;58.78;97504.16;10290394;28;20500;-51
2023/06/08 19:37:41;;;;;;;6.50;4.43;;;;;;;20.10;59.56;97498.50;10289295;28;20131;-52
2023/06/08 19:42:40;;;;;;;12.23;6.70;;;;;;;19.96;62.31;97500.88;10287856;28;20038;-53
2023/06/08 19:47:39;;;;;;;10.60;5.90;;;;;;;19.81;64.72;97492.72;10285354;28;20112;-50
2023/06/08 19:52:38;;;;;;;10.23;5.63;;;;;;;19.62;66.06;97491.75;10284248;28;20104;-49
2023/06/08 19:57:37;;;;;;;10.43;5.82;;;;;;;19.51;66.58;97492.19;10284292;28;20075;-51
2023/06/08 20:02:36;;;;;;;9.75;5.32;;;;;;;19.44;67.12;97488.94;10284958;28;20026;-52
2023/06/08 20:07:36;;;;;;;13.30;6.45;;;;;;;19.40;67.67;97492.63;10283714;28;20105;-51
2023/06/08 20:12:35;;;;;;;10.68;6.70;;;;;;;19.16;69.59;97494.47;10283176;28;20073;-50
2023/06/08 20:17:34;;;;;;;10.38;6.13;;;;;;;19.05;70.59;97501.91;10282835;28;20081;-50
2023/06/08 20:22:33;;;;;;;9.40;5.45;;;;;;;18.97;70.13;97489.06;10283774;28;20065;-54
2023/06/08 20:27:32;;;;;;;9.02;5.53;;;;;;;18.92;70.20;97496.25;10283829;28;20136;-49
2023/06/08 20:32:31;;;;;;;8.15;5.22;;;;;;;18.83;70.82;97499.28;10283833;28;20514;-52
2023/06/08 20:37:32;;;;;;;6.90;4.55;;;;;;;18.59;70.25;97451.91;10283922;28;20469;-48
2023/06/08 20:42:31;;;;;;;10.48;5.10;;;;;;;18.80;70.22;97497.59;10284042;28;20477;-52
2023/06/08 20:47:30;;;;;;;10.02;5.22;;;;;;;18.79;70.63;97490.63;10282623;28;20472;-53
2023/06/08 20:52:29;;;;;;;8.30;5.18;;;;;;;18.80;70.95;97486.22;10282674;28;20129;-50
2023/06/08 20:57:28;;;;;;;10.23;5.45;;;;;;;18.75;71.16;97494.28;10282985;28;20046;-52
2023/06/08 21:02:27;;;;;;;8.85;5.32;;;;;;;18.63;71.50;97489.47;10282714;28;20045;-50
2023/06/08 21:07:26;;;;;;;8.57;5.38;;;;;;;18.56;71.82;97488.84;10281935;28;20034;-51
2023/06/08 21:12:25;;;;;;;9.38;5.35;;;;;;;18.43;72.46;97487.56;10283378;28;20541;-51
2023/06/08 21:17:24;;;;;;;11.75;5.90;;;;;;;18.34;73.18;97488.78;10283360;28;20490;-53
2023/06/08 21:22:23;;;;;;;12.02;6.13;;;;;;;18.07;74.52;97488.00;10283939;28;20022;-50
2023/06/08 21:27:25;;;;;;;11.57;5.60;;;;;;;17.98;75.37;97485.69;10282799;28;20358;-52
2023/06/08 21:32:24;;;;;;;8.80;5.82;;;;;;;17.65;76.28;97451.78;10283343;28;20094;-52
2023/06/08 21:37:25;;;;;;;9.48;5.90;;;;;;;17.73;76.74;97480.38;10287397;28;20065;-52
2023/06/08 21:42:24;;;;;;;14.18;7.53;;;;;;;17.67;77.42;97480.63;10290763;28;20117;-51
2023/06/08 21:47:23;;;;;;;13.10;8.60;;;;;;;17.59;79.01;97483.50;10290637;28;20347;-51
2023/06/08 21:52:22;;;;;;;17.77;13.93;;;;;;;17.33;80.46;97472.13;10290159;28;20578;-52
2023/06/08 21:57:21;;;;;;;18.50;13.77;;;;;;;17.28;80.96;97488.88;10290584;28;20038;-50
2023/06/08 22:02:20;;;;;;;9.10;5.97;;;;;;;16.99;80.48;97487.19;10290142;28;20379;-48
2023/06/08 22:07:19;;;;;;;9.32;5.68;;;;;;;16.69;79.95;97447.88;10286879;28;20046;-51
2023/06/08 22:12:21;;;;;;;10.95;6.05;;;;;;;16.81;78.59;97478.13;10282701;28;20153;-51
2023/06/08 22:17:20;;;;;;;10.70;5.60;;;;;;;16.41;81.27;97495.84;10282217;28;20125;-50
2023/06/08 22:22:20;;;;;;;9.25;6.47;;;;;;;16.32;82.72;97490.00;10285741;28;20052;-50
2023/06/08 22:27:22;;;;;;;9.75;5.93;;;;;;;16.29;82.30;97486.56;10288695;28;20136;-49
2023/06/08 22:32:21;;;;;;;10.15;5.20;;;;;;;16.26;81.64;97491.06;10289364;28;20069;-52
2023/06/08 22:37:21;;;;;;;10.25;5.40;;;;;;;16.23;80.83;97498.97;10289643;28;20142;-51
2023/06/08 22:42:20;;;;;;;10.07;5.82;;;;;;;16.08;79.79;97477.56;10289127;28;20576;-51
2023/06/08 22:47:19;;;;;;;10.82;4.93;;;;;;;16.18;79.17;97491.25;10286805;28;20729;-52
2023/06/08 22:52:18;;;;;;;10.77;5.95;;;;;;;16.08;78.95;97466.22;10288777;28;20080;-50
2023/06/08 22:57:17;;;;;;;8.52;5.50;;;;;;;16.09;79.13;97484.53;10288851;28;20108;-50
2023/06/08 23:02:17;;;;;;;7.72;5.57;;;;;;;15.99;79.54;97469.94;10288048;28;20084;-53